createdAt,value
2023-11-11T00:01:49.200Z,101074.03
2023-11-11T00:04:16.260Z,101076.83
2023-11-11T00:06:43.500Z,101079.44
2023-11-11T00:09:14.502Z,101074.17
2023-11-11T00:11:41.691Z,101070.33
2023-11-11T00:14:11.216Z,101067.38
2023-11-11T00:16:38.488Z,101064.39
2023-11-11T00:19:05.402Z,101062.93
2023-11-11T00:21:32.485Z,101061.89
2023-11-11T00:23:59.387Z,101052.96
2023-11-11T00:26:26.636Z,101052.66
2023-11-11T00:28:53.689Z,101043.72
2023-11-11T00:31:20.553Z,101037.41
2023-11-11T00:33:47.517Z,101030.59
2023-11-11T00:36:16.982Z,101022.70
2023-11-11T00:38:43.848Z,101009.48
2023-11-11T00:41:10.667Z,100997.83
2023-11-11T00:43:37.713Z,100996.41
2023-11-11T00:46:04.888Z,100992.92
2023-11-11T00:48:32.044Z,100984.59
2023-11-11T00:51:01.719Z,100977.92
2023-11-11T00:53:28.621Z,100972.17
2023-11-11T00:55:55.960Z,100967.13
2023-11-11T00:58:22.968Z,100953.17
2023-11-11T01:00:49.808Z,100941.05
2023-11-11T01:03:16.784Z,100934.30
2023-11-11T01:05:43.905Z,100932.36
2023-11-11T01:08:11.057Z,100933.80
2023-11-11T01:10:38.742Z,100927.69
2023-11-11T01:13:06.897Z,100927.48
2023-11-11T01:15:34.959Z,100924.42
2023-11-11T01:18:02.032Z,100920.63
2023-11-11T01:20:29.057Z,100915.67
2023-11-11T01:22:56.719Z,100909.50
2023-11-11T01:25:23.671Z,100898.42
2023-11-11T01:27:50.715Z,100886.97
2023-11-11T01:30:20.222Z,100877.98
2023-11-11T01:32:47.292Z,100873.73
2023-11-11T01:35:14.314Z,100871.58
2023-11-11T01:37:41.269Z,100857.64
2023-11-11T01:40:08.724Z,100849.77
2023-11-11T01:42:35.808Z,100844.02
2023-11-11T01:45:03.121Z,100831.13
2023-11-11T01:47:30.502Z,100827.40
2023-11-11T01:49:58.378Z,100833.73
2023-11-11T01:52:26.007Z,100835.16
2023-11-11T01:54:53.239Z,100838.41
2023-11-11T01:57:21.120Z,100843.72
2023-11-11T01:59:48.379Z,100843.98
2023-11-11T02:02:16.284Z,100836.50
2023-11-11T02:04:43.472Z,100838.75
2023-11-11T02:07:10.539Z,100840.31
2023-11-11T02:09:38.422Z,100842.77
2023-11-11T02:12:06.162Z,100846.33
2023-11-11T02:14:38.023Z,100839.79
2023-11-11T02:17:05.902Z,100839.08
2023-11-11T02:19:32.841Z,100841.64
2023-11-11T02:21:59.577Z,100844.02
2023-11-11T02:24:27.919Z,100839.90
2023-11-11T02:26:55.217Z,100846.69
2023-11-11T02:29:22.257Z,100840.84
2023-11-11T02:31:49.106Z,100836.45
2023-11-11T02:34:16.868Z,100834.54
2023-11-11T02:36:53.920Z,100827.16
2023-11-11T02:39:27.779Z,100825.02
2023-11-11T02:41:54.704Z,100816.23
2023-11-11T02:44:21.546Z,100811.11
2023-11-11T02:46:48.813Z,100810.52
2023-11-11T02:49:16.094Z,100814.23
2023-11-11T02:51:43.034Z,100810.58
2023-11-11T02:54:09.988Z,100810.88
2023-11-11T02:56:37.198Z,100807.02
2023-11-11T02:59:04.137Z,100801.17
2023-11-11T03:01:41.878Z,100798.75
2023-11-11T03:04:09.276Z,100797.30
2023-11-11T03:06:42.730Z,100793.11
2023-11-11T03:09:13.357Z,100789.12
2023-11-11T03:11:40.891Z,100783.96
2023-11-11T03:14:07.945Z,100779.45
2023-11-11T03:16:39.596Z,100776.39
2023-11-11T03:19:07.582Z,100774.48
2023-11-11T03:21:35.066Z,100774.13
2023-11-11T03:24:02.979Z,100770.70
2023-11-11T03:26:30.038Z,100760.70
2023-11-11T03:28:57.080Z,100751.52
2023-11-11T03:31:24.157Z,100742.89
2023-11-11T03:33:51.421Z,100738.88
2023-11-11T03:36:18.433Z,100732.66
2023-11-11T03:38:45.383Z,100732.59
2023-11-11T03:41:12.234Z,100723.71
2023-11-11T03:43:39.693Z,100721.47
2023-11-11T03:46:06.800Z,100720.66
2023-11-11T03:48:33.793Z,100725.58
2023-11-11T03:51:00.844Z,100725.27
2023-11-11T03:53:27.860Z,100720.45
2023-11-11T03:55:54.918Z,100715.79
2023-11-11T03:58:23.593Z,100715.21
2023-11-11T04:00:51.098Z,100709.08
2023-11-11T04:03:18.506Z,100710.77
2023-11-11T04:05:47.056Z,100712.01
2023-11-11T04:08:15.053Z,100708.04
2023-11-11T04:10:41.900Z,100702.13
2023-11-11T04:13:10.079Z,100702.73
2023-11-11T04:15:37.601Z,100701.16
2023-11-11T04:18:04.638Z,100691.56
2023-11-11T04:20:31.954Z,100687.45
2023-11-11T04:22:59.920Z,100685.55
2023-11-11T04:25:26.855Z,100682.71
2023-11-11T04:27:54.326Z,100682.57
2023-11-11T04:30:21.535Z,100680.70
2023-11-11T04:32:48.568Z,100681.60
2023-11-11T04:35:15.453Z,100676.29
2023-11-11T04:37:42.506Z,100679.56
2023-11-11T04:40:11.289Z,100679.50
2023-11-11T04:42:39.493Z,100679.13
2023-11-11T04:45:07.432Z,100676.63
2023-11-11T04:47:34.289Z,100669.46
2023-11-11T04:50:02.145Z,100670.37
2023-11-11T04:52:31.861Z,100668.30
2023-11-11T04:54:58.800Z,100665.72
2023-11-11T04:57:25.892Z,100663.77
2023-11-11T04:59:52.901Z,100663.14
2023-11-11T05:02:19.835Z,100660.20
2023-11-11T05:04:46.994Z,100659.70
2023-11-11T05:07:14.031Z,100660.01
2023-11-11T05:09:41.205Z,100663.96
2023-11-11T05:12:09.458Z,100668.13
2023-11-11T05:14:37.118Z,100673.09
2023-11-11T05:17:08.341Z,100674.51
2023-11-11T05:19:35.512Z,100672.64
2023-11-11T05:22:06.775Z,100671.27
2023-11-11T05:24:33.724Z,100669.13
2023-11-11T05:27:00.861Z,100672.25
2023-11-11T05:29:27.814Z,100678.58
2023-11-11T05:31:54.760Z,100677.34
2023-11-11T05:34:21.799Z,100687.05
2023-11-11T05:36:50.925Z,100683.55
2023-11-11T05:39:17.751Z,100675.98
2023-11-11T05:41:44.695Z,100677.50
2023-11-11T05:44:11.624Z,100672.08
2023-11-11T05:46:40.376Z,100671.27
2023-11-11T05:49:07.695Z,100671.10
2023-11-11T05:51:34.735Z,100670.48
2023-11-11T05:54:02.683Z,100673.65
2023-11-11T05:56:29.833Z,100673.21
2023-11-11T05:58:59.649Z,100664.02
2023-11-11T06:01:27.208Z,100668.21
2023-11-11T06:03:54.194Z,100670.45
2023-11-11T06:06:21.166Z,100662.32
2023-11-11T06:08:48.662Z,100653.50
2023-11-11T06:11:16.732Z,100651.92
2023-11-11T06:13:43.675Z,100649.66
2023-11-11T06:16:10.595Z,100651.70
2023-11-11T06:18:37.586Z,100650.73
2023-11-11T06:21:08.748Z,100658.79
2023-11-11T06:26:08.486Z,100655.58
2023-11-11T06:28:35.407Z,100661.25
2023-11-11T06:31:02.631Z,100661.92
2023-11-11T06:33:29.967Z,100654.86
2023-11-11T06:35:59.336Z,100642.02
2023-11-11T06:38:26.358Z,100638.73
2023-11-11T06:40:53.207Z,100645.02
2023-11-11T06:43:20.154Z,100649.77
2023-11-11T06:45:48.141Z,100644.64
2023-11-11T06:48:17.003Z,100635.02
2023-11-11T06:50:43.936Z,100633.63
2023-11-11T06:53:12.614Z,100634.02
2023-11-11T06:55:39.577Z,100623.14
2023-11-11T06:58:07.980Z,100610.90
2023-11-11T07:00:35.220Z,100608.25
2023-11-11T07:03:03.684Z,100606.88
2023-11-11T07:05:30.751Z,100592.82
2023-11-11T07:07:57.678Z,100590.88
2023-11-11T07:10:24.612Z,100583.92
2023-11-11T07:12:52.342Z,100574.77
2023-11-11T07:15:22.027Z,100570.65
2023-11-11T07:17:49.222Z,100574.81
2023-11-11T07:20:19.761Z,100572.66
2023-11-11T07:22:46.713Z,100565.86
2023-11-11T07:25:13.756Z,100564.05
2023-11-11T07:27:40.650Z,100558.14
2023-11-11T07:30:10.948Z,100563.20
2023-11-11T07:32:44.535Z,100562.16
2023-11-11T07:35:17.721Z,100562.52
2023-11-11T07:37:47.329Z,100565.75
2023-11-11T07:40:17.355Z,100569.08
2023-11-11T07:42:44.338Z,100567.98
2023-11-11T07:45:12.165Z,100560.36
2023-11-11T07:47:42.247Z,100555.04
2023-11-11T07:50:10.357Z,100547.98
2023-11-11T07:52:37.101Z,100552.40
2023-11-11T07:55:05.914Z,100546.59
2023-11-11T08:00:07.129Z,100522.56
2023-11-11T08:02:36.604Z,100516.17
2023-11-11T08:05:04.449Z,100509.23
2023-11-11T08:07:31.462Z,100505.21
2023-11-11T08:09:58.398Z,100503.20
2023-11-11T08:12:25.361Z,100503.02
2023-11-11T08:14:53.105Z,100502.28
2023-11-11T08:17:20.219Z,100500.46
2023-11-11T08:19:47.732Z,100512.46
2023-11-11T08:22:14.679Z,100518.67
2023-11-11T08:24:41.750Z,100512.38
2023-11-11T08:27:09.782Z,100503.83
2023-11-11T08:29:37.130Z,100501.33
2023-11-11T08:32:04.794Z,100498.71
2023-11-11T08:34:31.843Z,100493.40
2023-11-11T08:36:58.934Z,100485.98
2023-11-11T08:39:25.972Z,100487.52
2023-11-11T08:41:52.985Z,100487.98
2023-11-11T08:44:20.673Z,100488.52
2023-11-11T08:46:48.064Z,100487.08
2023-11-11T08:49:15.308Z,100484.71
2023-11-11T08:51:42.319Z,100485.30
2023-11-11T08:54:09.545Z,100479.59
2023-11-11T08:56:36.488Z,100476.13
2023-11-11T08:59:04.811Z,100470.73
2023-11-11T09:01:33.711Z,100477.67
2023-11-11T09:04:01.149Z,100472.58
2023-11-11T09:06:28.706Z,100471.02
2023-11-11T09:08:57.466Z,100461.03
2023-11-11T09:11:25.942Z,100452.48
2023-11-11T09:13:53.306Z,100443.89
2023-11-11T09:16:20.291Z,100435.58
2023-11-11T09:18:48.039Z,100422.21
2023-11-11T09:21:15.674Z,100413.40
2023-11-11T09:23:42.946Z,100412.84
2023-11-11T09:26:09.972Z,100420.54
2023-11-11T09:28:37.834Z,100423.98
2023-11-11T09:31:05.054Z,100422.93
2023-11-11T09:33:32.205Z,100418.23
2023-11-11T09:35:58.912Z,100413.10
2023-11-11T09:38:26.040Z,100408.84
2023-11-11T09:41:11.041Z,100403.77
2023-11-11T09:43:38.040Z,100399.52
2023-11-11T09:46:09.750Z,100400.16
2023-11-11T09:48:36.953Z,100394.68
2023-11-11T09:51:07.442Z,100396.06
2023-11-11T09:53:36.208Z,100405.89
2023-11-11T09:56:05.696Z,100417.02
2023-11-11T09:58:34.689Z,100406.42
2023-11-11T10:01:01.482Z,100405.16
2023-11-11T10:03:29.865Z,100407.85
2023-11-11T10:05:58.267Z,100409.08
2023-11-11T10:08:25.721Z,100408.64
2023-11-11T10:10:53.405Z,100403.54
2023-11-11T10:13:21.899Z,100398.20
2023-11-11T10:15:49.162Z,100391.38
2023-11-11T10:18:16.882Z,100394.95
2023-11-11T10:20:47.699Z,100392.01
2023-11-11T10:23:16.510Z,100389.20
2023-11-11T10:25:43.996Z,100391.94
2023-11-11T10:28:16.784Z,100386.63
2023-11-11T10:30:44.002Z,100378.38
2023-11-11T10:33:12.550Z,100377.38
2023-11-11T10:35:40.668Z,100379.73
2023-11-11T10:38:08.553Z,100375.79
2023-11-11T10:40:35.634Z,100366.13
2023-11-11T10:43:05.066Z,100356.86
2023-11-11T10:45:33.755Z,100350.65
2023-11-11T10:48:01.941Z,100352.89
2023-11-11T10:50:31.238Z,100343.35
2023-11-11T10:52:58.856Z,100335.15
2023-11-11T10:55:27.573Z,100329.63
2023-11-11T10:57:57.198Z,100328.54
2023-11-11T11:00:25.259Z,100328.09
2023-11-11T11:02:54.753Z,100330.23
2023-11-11T11:05:59.602Z,100334.82
2023-11-11T11:08:35.765Z,100329.67
2023-11-11T11:11:29.028Z,100322.11
2023-11-11T11:14:08.612Z,100315.44
2023-11-11T11:16:39.110Z,100313.92
2023-11-11T11:19:08.548Z,100306.20
2023-11-11T11:21:35.954Z,100297.73
2023-11-11T11:24:10.169Z,100293.00
2023-11-11T11:26:37.421Z,100282.91
2023-11-11T11:29:14.445Z,100273.48
2023-11-11T11:32:04.129Z,100263.64
2023-11-11T11:34:31.258Z,100258.30
2023-11-11T11:36:58.274Z,100258.80
2023-11-11T11:39:51.335Z,100256.48
2023-11-11T11:42:20.982Z,100252.16
2023-11-11T11:44:58.758Z,100246.25
2023-11-11T11:47:33.480Z,100237.36
2023-11-11T11:50:01.672Z,100235.63
2023-11-11T11:52:28.830Z,100229.55
2023-11-11T11:54:56.566Z,100225.22
2023-11-11T11:57:28.318Z,100226.94
2023-11-11T12:00:14.444Z,100226.14
2023-11-11T12:02:41.916Z,100227.36
2023-11-11T12:05:09.819Z,100221.93
2023-11-11T12:07:38.857Z,100216.92
2023-11-11T12:10:07.820Z,100216.12
2023-11-11T12:12:35.029Z,100214.15
2023-11-11T12:15:12.796Z,100210.13
2023-11-11T12:17:43.243Z,100209.86
2023-11-11T12:20:15.065Z,100212.31
2023-11-11T12:22:43.797Z,100212.18
2023-11-11T12:25:11.506Z,100210.25
2023-11-11T12:27:38.570Z,100214.09
2023-11-11T12:30:22.535Z,100216.46
2023-11-11T12:33:11.683Z,100215.52
2023-11-11T12:35:41.729Z,100211.59
2023-11-11T12:38:24.538Z,100208.54
2023-11-11T12:40:56.189Z,100212.94
2023-11-11T12:43:25.172Z,100209.84
2023-11-11T12:45:55.732Z,100211.86
2023-11-11T12:48:29.696Z,100219.97
2023-11-11T12:50:57.874Z,100224.78
2023-11-11T12:53:24.735Z,100229.16
2023-11-11T12:56:12.454Z,100225.65
2023-11-11T12:58:39.239Z,100221.77
2023-11-11T13:01:06.930Z,100221.27
2023-11-11T13:03:34.694Z,100211.61
2023-11-11T13:06:06.425Z,100204.95
2023-11-11T13:08:35.362Z,100201.01
2023-11-11T13:11:03.229Z,100192.90
2023-11-11T13:13:30.824Z,100184.02
2023-11-11T13:16:00.828Z,100174.91
2023-11-11T13:18:27.958Z,100158.12
2023-11-11T13:20:59.549Z,100139.31
2023-11-11T13:23:30.238Z,100122.64
2023-11-11T13:25:57.702Z,100109.29
2023-11-11T13:28:25.040Z,100109.39
2023-11-11T13:30:54.455Z,100101.25
2023-11-11T13:33:21.678Z,100095.91
2023-11-11T13:35:51.518Z,100092.88
2023-11-11T13:38:21.174Z,100079.87
2023-11-11T13:40:49.486Z,100063.22
2023-11-11T13:43:17.789Z,100049.90
2023-11-11T13:45:47.478Z,100043.91
2023-11-11T13:48:15.022Z,100040.52
2023-11-11T13:50:41.925Z,100016.14
2023-11-11T13:53:09.871Z,99988.15
2023-11-11T13:55:37.139Z,99964.48
2023-11-11T13:58:04.173Z,99935.35
2023-11-11T14:00:31.936Z,99904.88
2023-11-11T14:03:02.772Z,99872.56
2023-11-11T14:05:30.154Z,99894.36
2023-11-11T14:07:57.068Z,99993.06
2023-11-11T14:10:28.367Z,100042.34
2023-11-11T14:12:56.532Z,100045.62
2023-11-11T14:15:30.937Z,100044.72
2023-11-11T14:17:58.330Z,100046.64
2023-11-11T14:20:29.510Z,100057.02
2023-11-11T14:23:01.253Z,100075.22
2023-11-11T14:25:28.871Z,100070.19
2023-11-11T14:27:56.604Z,100056.71
2023-11-11T14:30:26.597Z,100027.20
2023-11-11T14:32:56.833Z,100012.05
2023-11-11T14:35:24.146Z,100027.42
2023-11-11T14:37:55.689Z,100040.25
2023-11-11T14:40:23.651Z,100043.41
2023-11-11T14:42:55.429Z,100058.51
2023-11-11T14:45:23.565Z,100072.97
2023-11-11T14:47:51.446Z,100090.45
2023-11-11T14:50:20.878Z,100108.29
2023-11-11T14:52:51.601Z,100104.39
2023-11-11T14:55:18.834Z,100095.05
2023-11-11T14:57:47.808Z,100085.84
2023-11-11T15:00:27.741Z,100076.65
2023-11-11T15:02:56.319Z,100087.92
2023-11-11T15:05:23.929Z,100096.06
2023-11-11T15:07:51.913Z,100094.23
2023-11-11T15:10:20.430Z,100100.48
2023-11-11T15:12:51.682Z,100092.68
2023-11-11T15:15:19.770Z,100090.98
2023-11-11T15:17:47.282Z,100094.10
2023-11-11T15:20:16.303Z,100100.11
2023-11-11T15:22:46.553Z,100094.20
2023-11-11T15:25:15.913Z,100091.61
2023-11-11T15:27:43.696Z,100090.77
2023-11-11T15:30:15.769Z,100094.19
2023-11-11T15:32:42.939Z,100098.17
2023-11-11T15:35:10.680Z,100108.08
2023-11-11T15:37:38.266Z,100111.92
2023-11-11T15:40:08.994Z,100115.66
2023-11-11T15:42:36.844Z,100120.21
2023-11-11T15:45:07.908Z,100127.66
2023-11-11T15:47:35.157Z,100128.02
2023-11-11T15:50:04.665Z,100132.04
2023-11-11T15:52:31.960Z,100132.70
2023-11-11T15:54:58.937Z,100131.08
2023-11-11T15:57:25.996Z,100132.09
2023-11-11T15:59:52.697Z,100136.35
2023-11-11T16:02:19.732Z,100136.38
2023-11-11T16:04:47.558Z,100133.60
2023-11-11T16:07:14.893Z,100130.27
2023-11-11T16:09:41.835Z,100128.14
2023-11-11T16:12:12.270Z,100128.16
2023-11-11T16:14:40.234Z,100129.95
2023-11-11T16:17:07.641Z,100138.05
2023-11-11T16:19:35.506Z,100144.55
2023-11-11T16:22:04.146Z,100144.21
2023-11-11T16:24:31.088Z,100147.70
2023-11-11T16:26:57.929Z,100148.42
2023-11-11T16:29:24.983Z,100148.95
2023-11-11T16:31:52.211Z,100150.76
2023-11-11T16:34:21.453Z,100161.42
2023-11-11T16:36:48.498Z,100168.81
2023-11-11T16:39:19.313Z,100175.22
2023-11-11T16:41:49.815Z,100179.56
2023-11-11T16:44:17.638Z,100184.78
2023-11-11T16:46:44.463Z,100189.15
2023-11-11T16:49:11.400Z,100191.20
2023-11-11T16:51:38.240Z,100187.11
2023-11-11T16:54:05.811Z,100188.04
2023-11-11T16:56:32.851Z,100189.20
2023-11-11T16:58:59.706Z,100187.75
2023-11-11T17:01:26.851Z,100185.95
2023-11-11T17:03:57.441Z,100183.60
2023-11-11T17:06:24.861Z,100186.49
2023-11-11T17:08:51.935Z,100188.18
2023-11-11T17:11:18.818Z,100185.99
2023-11-11T17:13:46.195Z,100183.81
2023-11-11T17:16:13.123Z,100175.43
2023-11-11T17:18:40.387Z,100169.01
2023-11-11T17:21:07.839Z,100181.76
2023-11-11T17:23:34.769Z,100193.91
2023-11-11T17:26:01.607Z,100202.06
2023-11-11T17:28:31.908Z,100207.27
2023-11-11T17:30:59.073Z,100215.23
2023-11-11T17:33:35.738Z,100215.52
2023-11-11T17:36:09.050Z,100221.50
2023-11-11T17:38:39.239Z,100225.60
2023-11-11T17:41:12.604Z,100235.77
2023-11-11T17:43:39.964Z,100240.56
2023-11-11T17:46:07.419Z,100252.46
2023-11-11T17:48:35.994Z,100258.05
2023-11-11T17:51:05.347Z,100268.08
2023-11-11T17:53:32.237Z,100270.91
2023-11-11T17:56:00.710Z,100273.50
2023-11-11T17:58:28.256Z,100266.69
2023-11-11T18:00:55.401Z,100256.73
2023-11-11T18:03:22.331Z,100264.11
2023-11-11T18:05:51.142Z,100271.23
2023-11-11T18:08:18.096Z,100273.88
2023-11-11T18:10:44.929Z,100275.60
2023-11-11T18:13:13.306Z,100270.30
2023-11-11T18:15:40.148Z,100273.63
2023-11-11T18:18:07.679Z,100270.59
2023-11-11T18:20:34.671Z,100265.30
2023-11-11T18:23:01.730Z,100264.77
2023-11-11T18:25:28.765Z,100266.17
2023-11-11T18:27:55.721Z,100272.30
2023-11-11T18:30:23.667Z,100277.66
2023-11-11T18:32:50.704Z,100295.74
2023-11-11T18:35:17.880Z,100304.89
2023-11-11T18:37:44.948Z,100319.25
2023-11-11T18:40:12.567Z,100334.85
2023-11-11T18:42:39.420Z,100327.55
2023-11-11T18:45:09.743Z,100315.40
2023-11-11T18:47:36.687Z,100303.99
2023-11-11T18:50:16.172Z,100292.63
2023-11-11T18:52:50.214Z,100299.53
2023-11-11T18:55:17.175Z,100299.17
2023-11-11T18:57:43.932Z,100302.50
2023-11-11T19:00:12.444Z,100320.00
2023-11-11T19:02:39.449Z,100325.88
2023-11-11T19:05:10.216Z,100321.64
2023-11-11T19:07:37.871Z,100310.23
2023-11-11T19:10:08.361Z,100303.85
2023-11-11T19:12:36.042Z,100307.42
2023-11-11T19:15:04.519Z,100319.77
2023-11-11T19:17:31.977Z,100332.14
2023-11-11T19:19:59.770Z,100344.75
2023-11-11T19:22:29.119Z,100351.50
2023-11-11T19:24:58.268Z,100344.84
2023-11-11T19:27:25.179Z,100347.83
2023-11-11T19:29:52.403Z,100349.15
2023-11-11T19:32:20.789Z,100354.39
2023-11-11T19:34:48.140Z,100350.00
2023-11-11T19:37:15.265Z,100354.29
2023-11-11T19:39:42.366Z,100360.77
2023-11-11T19:42:09.777Z,100365.86
2023-11-11T19:44:36.893Z,100363.75
2023-11-11T19:47:04.347Z,100360.26
2023-11-11T19:49:31.271Z,100364.28
2023-11-11T19:51:58.436Z,100359.94
2023-11-11T19:54:25.516Z,100361.02
2023-11-11T19:56:52.827Z,100365.38
2023-11-11T19:59:19.693Z,100367.15
2023-11-11T20:01:46.768Z,100367.72
2023-11-11T20:04:13.980Z,100366.02
2023-11-11T20:06:41.023Z,100364.75
2023-11-11T20:09:08.883Z,100367.08
2023-11-11T20:11:35.936Z,100367.23
2023-11-11T20:14:03.042Z,100370.11
2023-11-11T20:16:29.881Z,100371.44
2023-11-11T20:18:56.875Z,100370.51
2023-11-11T20:21:23.928Z,100375.21
2023-11-11T20:23:50.978Z,100376.91
2023-11-11T20:26:18.371Z,100374.55
2023-11-11T20:28:45.411Z,100368.55
2023-11-11T20:31:15.946Z,100366.29
2023-11-11T20:33:42.840Z,100369.61
2023-11-11T20:36:10.014Z,100374.89
2023-11-11T20:38:38.683Z,100370.42
2023-11-11T20:41:05.859Z,100372.80
2023-11-11T20:43:36.282Z,100375.39
2023-11-11T20:46:03.562Z,100381.83
2023-11-11T20:48:30.556Z,100380.43
2023-11-11T20:50:57.636Z,100379.55
2023-11-11T20:53:24.552Z,100382.14
2023-11-11T20:55:51.738Z,100377.69
2023-11-11T20:58:20.089Z,100374.16
2023-11-11T21:00:47.135Z,100382.88
2023-11-11T21:03:14.629Z,100385.00
2023-11-11T21:05:41.754Z,100384.25
2023-11-11T21:08:09.246Z,100388.90
2023-11-11T21:10:36.958Z,100386.48
2023-11-11T21:13:04.207Z,100383.59
2023-11-11T21:15:31.156Z,100386.99
2023-11-11T21:17:58.638Z,100384.17
2023-11-11T21:20:26.684Z,100389.70
2023-11-11T21:22:53.755Z,100397.19
2023-11-11T21:25:22.002Z,100397.52
2023-11-11T21:27:49.388Z,100405.06
2023-11-11T21:30:16.725Z,100407.16
2023-11-11T21:32:44.073Z,100412.32
2023-11-11T21:35:11.167Z,100410.39
2023-11-11T21:37:38.339Z,100413.48
2023-11-11T21:40:08.187Z,100422.20
2023-11-11T21:42:35.026Z,100421.29
2023-11-11T21:45:01.886Z,100421.61
2023-11-11T21:47:29.061Z,100421.88
2023-11-11T21:49:56.188Z,100420.26
2023-11-11T21:52:23.635Z,100426.05
2023-11-11T21:54:50.575Z,100430.23
2023-11-11T21:57:17.713Z,100421.58
2023-11-11T21:59:44.778Z,100416.64
2023-11-11T22:02:11.799Z,100410.25
2023-11-11T22:04:41.848Z,100413.02
2023-11-11T22:07:08.785Z,100411.25
2023-11-11T22:09:35.496Z,100408.00
2023-11-11T22:12:06.859Z,100414.27
2023-11-11T22:14:34.235Z,100415.48
2023-11-11T22:17:01.438Z,100419.63
2023-11-11T22:19:28.637Z,100421.20
2023-11-11T22:21:55.486Z,100425.79
2023-11-11T22:24:22.421Z,100431.22
2023-11-11T22:26:50.895Z,100427.55
2023-11-11T22:29:18.760Z,100424.23
2023-11-11T22:31:45.760Z,100414.58
2023-11-11T22:34:12.673Z,100416.59
2023-11-11T22:36:39.901Z,100410.34
2023-11-11T22:39:06.864Z,100407.20
2023-11-11T22:41:36.251Z,100404.10
2023-11-11T22:44:03.131Z,100406.27
2023-11-11T22:46:30.182Z,100406.86
2023-11-11T22:48:57.089Z,100408.50
2023-11-11T22:51:24.039Z,100415.27
2023-11-11T22:53:50.974Z,100415.84
2023-11-11T22:56:18.056Z,100415.27
2023-11-11T22:58:45.079Z,100407.30
2023-11-11T23:01:12.423Z,100406.39
2023-11-11T23:03:39.492Z,100399.45
2023-11-11T23:06:06.550Z,100399.16
2023-11-11T23:08:33.881Z,100397.98
2023-11-11T23:11:01.478Z,100390.10
2023-11-11T23:13:30.640Z,100392.33
2023-11-11T23:15:57.802Z,100389.30
2023-11-11T23:18:26.039Z,100391.48
2023-11-11T23:21:03.498Z,100386.97
2023-11-11T23:23:37.684Z,100378.33
2023-11-11T23:26:08.945Z,100371.31
2023-11-11T23:28:36.784Z,100368.19
2023-11-11T23:31:07.235Z,100372.36
2023-11-11T23:33:36.661Z,100368.73
2023-11-11T23:36:04.481Z,100369.52
2023-11-11T23:38:31.435Z,100371.80
2023-11-11T23:40:58.715Z,100366.84
2023-11-11T23:43:25.725Z,100363.04
2023-11-11T23:45:52.577Z,100356.70
2023-11-11T23:48:20.332Z,100352.16
2023-11-11T23:50:47.480Z,100349.64
2023-11-11T23:53:14.481Z,100341.91
2023-11-11T23:55:42.543Z,100340.30
2023-11-11T23:58:10.575Z,100340.89
